sensor_id;sensor_type;location;lat;lon;timestamp;P1;durP1;ratioP1;P2;durP2;ratioP2
75429;SDS011;64127;51.488;5.462;2023-05-10T00:01:05;11.67;;;10.13;;
75429;SDS011;64127;51.488;5.462;2023-05-10T00:03:37;11.53;;;10.43;;
75429;SDS011;64127;51.488;5.462;2023-05-10T00:06:09;11.70;;;10.13;;
75429;SDS011;64127;51.488;5.462;2023-05-10T00:08:41;11.63;;;10.53;;
75429;SDS011;64127;51.488;5.462;2023-05-10T00:11:13;12.17;;;10.87;;
75429;SDS011;64127;51.488;5.462;2023-05-10T00:13:45;13.23;;;11.90;;
75429;SDS011;64127;51.488;5.462;2023-05-10T00:16:18;12.33;;;10.67;;
75429;SDS011;64127;51.488;5.462;2023-05-10T00:18:50;12.07;;;10.80;;
75429;SDS011;64127;51.488;5.462;2023-05-10T00:21:22;14.33;;;11.90;;
75429;SDS011;64127;51.488;5.462;2023-05-10T00:23:54;13.87;;;12.57;;
75429;SDS011;64127;51.488;5.462;2023-05-10T00:26:26;14.03;;;12.53;;
75429;SDS011;64127;51.488;5.462;2023-05-10T00:28:58;13.70;;;12.40;;
75429;SDS011;64127;51.488;5.462;2023-05-10T00:31:30;13.67;;;12.20;;
75429;SDS011;64127;51.488;5.462;2023-05-10T00:34:03;13.77;;;12.47;;
75429;SDS011;64127;51.488;5.462;2023-05-10T00:36:34;15.90;;;14.30;;
75429;SDS011;64127;51.488;5.462;2023-05-10T00:39:06;15.83;;;14.27;;
75429;SDS011;64127;51.488;5.462;2023-05-10T00:41:39;18.43;;;16.53;;
75429;SDS011;64127;51.488;5.462;2023-05-10T00:44:11;19.13;;;17.13;;
75429;SDS011;64127;51.488;5.462;2023-05-10T00:46:43;19.83;;;17.80;;
75429;SDS011;64127;51.488;5.462;2023-05-10T00:49:16;19.20;;;17.23;;
75429;SDS011;64127;51.488;5.462;2023-05-10T00:51:49;21.20;;;18.60;;
75429;SDS011;64127;51.488;5.462;2023-05-10T00:54:21;20.87;;;18.63;;
75429;SDS011;64127;51.488;5.462;2023-05-10T00:56:53;22.40;;;20.00;;
75429;SDS011;64127;51.488;5.462;2023-05-10T00:59:25;23.07;;;20.00;;
75429;SDS011;64127;51.488;5.462;2023-05-10T01:01:57;25.00;;;21.10;;
75429;SDS011;64127;51.488;5.462;2023-05-10T01:04:29;24.53;;;21.37;;
75429;SDS011;64127;51.488;5.462;2023-05-10T01:07:01;28.40;;;22.33;;
75429;SDS011;64127;51.488;5.462;2023-05-10T01:09:33;25.13;;;22.40;;
75429;SDS011;64127;51.488;5.462;2023-05-10T01:12:06;25.30;;;21.97;;
75429;SDS011;64127;51.488;5.462;2023-05-10T01:14:38;27.37;;;23.13;;
75429;SDS011;64127;51.488;5.462;2023-05-10T01:17:11;28.37;;;23.47;;
75429;SDS011;64127;51.488;5.462;2023-05-10T01:19:44;30.57;;;24.93;;
75429;SDS011;64127;51.488;5.462;2023-05-10T01:36:45;41.27;;;31.00;;
75429;SDS011;64127;51.488;5.462;2023-05-10T01:42:40;45.20;;;34.50;;
75429;SDS011;64127;51.488;5.462;2023-05-10T01:45:41;41.30;;;32.10;;
75429;SDS011;64127;51.488;5.462;2023-05-10T01:48:32;43.33;;;33.73;;
75429;SDS011;64127;51.488;5.462;2023-05-10T01:51:04;43.20;;;34.53;;
75429;SDS011;64127;51.488;5.462;2023-05-10T01:53:39;43.63;;;34.40;;
75429;SDS011;64127;51.488;5.462;2023-05-10T01:56:13;44.60;;;34.77;;
75429;SDS011;64127;51.488;5.462;2023-05-10T01:58:46;43.63;;;34.70;;
75429;SDS011;64127;51.488;5.462;2023-05-10T02:01:22;43.73;;;35.27;;
75429;SDS011;64127;51.488;5.462;2023-05-10T02:03:57;42.03;;;33.93;;
75429;SDS011;64127;51.488;5.462;2023-05-10T02:06:31;43.77;;;33.63;;
75429;SDS011;64127;51.488;5.462;2023-05-10T02:09:04;43.37;;;34.67;;
75429;SDS011;64127;51.488;5.462;2023-05-10T02:11:39;42.87;;;34.83;;
75429;SDS011;64127;51.488;5.462;2023-05-10T02:14:14;42.37;;;34.80;;
75429;SDS011;64127;51.488;5.462;2023-05-10T02:16:48;44.57;;;35.57;;
75429;SDS011;64127;51.488;5.462;2023-05-10T02:19:24;44.43;;;36.77;;
75429;SDS011;64127;51.488;5.462;2023-05-10T02:22:00;44.30;;;36.33;;
75429;SDS011;64127;51.488;5.462;2023-05-10T02:24:34;44.23;;;37.33;;
75429;SDS011;64127;51.488;5.462;2023-05-10T02:27:09;46.13;;;38.97;;
75429;SDS011;64127;51.488;5.462;2023-05-10T02:29:43;47.27;;;39.40;;
75429;SDS011;64127;51.488;5.462;2023-05-10T02:32:17;46.70;;;40.17;;
75429;SDS011;64127;51.488;5.462;2023-05-10T02:34:50;51.40;;;40.87;;
75429;SDS011;64127;51.488;5.462;2023-05-10T02:37:24;52.60;;;41.57;;
75429;SDS011;64127;51.488;5.462;2023-05-10T02:39:58;50.67;;;41.80;;
75429;SDS011;64127;51.488;5.462;2023-05-10T02:42:32;54.17;;;42.83;;
75429;SDS011;64127;51.488;5.462;2023-05-10T02:45:10;53.03;;;43.33;;
75429;SDS011;64127;51.488;5.462;2023-05-10T02:47:46;57.10;;;43.13;;
75429;SDS011;64127;51.488;5.462;2023-05-10T02:50:19;51.17;;;43.57;;
75429;SDS011;64127;51.488;5.462;2023-05-10T02:52:54;53.10;;;42.60;;
75429;SDS011;64127;51.488;5.462;2023-05-10T02:55:35;49.97;;;42.77;;
75429;SDS011;64127;51.488;5.462;2023-05-10T02:58:11;46.27;;;39.47;;
75429;SDS011;64127;51.488;5.462;2023-05-10T03:00:43;48.97;;;40.37;;
75429;SDS011;64127;51.488;5.462;2023-05-10T03:03:16;46.90;;;39.27;;
75429;SDS011;64127;51.488;5.462;2023-05-10T03:05:48;46.00;;;40.40;;
75429;SDS011;64127;51.488;5.462;2023-05-10T03:08:20;48.43;;;40.17;;
75429;SDS011;64127;51.488;5.462;2023-05-10T03:10:55;46.27;;;38.77;;
75429;SDS011;64127;51.488;5.462;2023-05-10T03:17:22;47.27;;;38.03;;
75429;SDS011;64127;51.488;5.462;2023-05-10T03:20:29;42.13;;;36.20;;
75429;SDS011;64127;51.488;5.462;2023-05-10T03:23:20;43.77;;;35.90;;
75429;SDS011;64127;51.488;5.462;2023-05-10T03:25:55;42.10;;;36.17;;
75429;SDS011;64127;51.488;5.462;2023-05-10T03:28:29;40.67;;;34.07;;
75429;SDS011;64127;51.488;5.462;2023-05-10T03:31:03;41.97;;;34.13;;
75429;SDS011;64127;51.488;5.462;2023-05-10T03:33:45;41.63;;;33.10;;
75429;SDS011;64127;51.488;5.462;2023-05-10T03:36:21;41.07;;;33.67;;
75429;SDS011;64127;51.488;5.462;2023-05-10T03:38:53;45.63;;;33.13;;
75429;SDS011;64127;51.488;5.462;2023-05-10T03:41:25;42.10;;;33.60;;
75429;SDS011;64127;51.488;5.462;2023-05-10T03:43:57;40.87;;;31.43;;
75429;SDS011;64127;51.488;5.462;2023-05-10T03:46:29;42.77;;;32.73;;
75429;SDS011;64127;51.488;5.462;2023-05-10T03:49:01;37.10;;;30.47;;
75429;SDS011;64127;51.488;5.462;2023-05-10T03:51:33;41.43;;;31.53;;
75429;SDS011;64127;51.488;5.462;2023-05-10T03:54:05;40.63;;;31.83;;
75429;SDS011;64127;51.488;5.462;2023-05-10T03:56:37;38.87;;;30.63;;
75429;SDS011;64127;51.488;5.462;2023-05-10T03:59:09;42.60;;;33.30;;
75429;SDS011;64127;51.488;5.462;2023-05-10T04:01:41;44.17;;;33.10;;
75429;SDS011;64127;51.488;5.462;2023-05-10T04:04:13;41.77;;;32.90;;
75429;SDS011;64127;51.488;5.462;2023-05-10T04:06:45;42.03;;;32.77;;
75429;SDS011;64127;51.488;5.462;2023-05-10T04:09:17;42.97;;;33.73;;
75429;SDS011;64127;51.488;5.462;2023-05-10T04:11:49;44.73;;;33.00;;
75429;SDS011;64127;51.488;5.462;2023-05-10T04:14:21;47.40;;;35.00;;
75429;SDS011;64127;51.488;5.462;2023-05-10T04:16:53;51.87;;;37.53;;
75429;SDS011;64127;51.488;5.462;2023-05-10T04:19:29;58.17;;;40.30;;
75429;SDS011;64127;51.488;5.462;2023-05-10T04:22:02;65.47;;;42.17;;
75429;SDS011;64127;51.488;5.462;2023-05-10T04:24:34;67.00;;;45.17;;
75429;SDS011;64127;51.488;5.462;2023-05-10T04:27:06;74.37;;;48.17;;
75429;SDS011;64127;51.488;5.462;2023-05-10T04:29:38;89.05;;;59.92;;
75429;SDS011;64127;51.488;5.462;2023-05-10T04:32:10;84.83;;;54.77;;
75429;SDS011;64127;51.488;5.462;2023-05-10T04:34:43;79.00;;;51.93;;
75429;SDS011;64127;51.488;5.462;2023-05-10T04:37:15;81.30;;;52.37;;
75429;SDS011;64127;51.488;5.462;2023-05-10T04:39:47;80.40;;;52.07;;
75429;SDS011;64127;51.488;5.462;2023-05-10T04:42:19;79.87;;;51.47;;
75429;SDS011;64127;51.488;5.462;2023-05-10T04:44:51;74.07;;;49.17;;
75429;SDS011;64127;51.488;5.462;2023-05-10T04:47:23;77.30;;;50.47;;
75429;SDS011;64127;51.488;5.462;2023-05-10T04:49:55;71.93;;;48.27;;
75429;SDS011;64127;51.488;5.462;2023-05-10T04:52:27;70.33;;;47.13;;
75429;SDS011;64127;51.488;5.462;2023-05-10T04:54:59;63.83;;;45.20;;
75429;SDS011;64127;51.488;5.462;2023-05-10T04:57:31;60.80;;;42.97;;
75429;SDS011;64127;51.488;5.462;2023-05-10T05:00:03;56.70;;;41.20;;
75429;SDS011;64127;51.488;5.462;2023-05-10T05:02:36;52.93;;;38.27;;
75429;SDS011;64127;51.488;5.462;2023-05-10T05:05:08;49.30;;;36.57;;
75429;SDS011;64127;51.488;5.462;2023-05-10T05:07:40;43.30;;;34.33;;
75429;SDS011;64127;51.488;5.462;2023-05-10T05:10:12;40.70;;;32.47;;
75429;SDS011;64127;51.488;5.462;2023-05-10T05:12:44;46.20;;;32.83;;
75429;SDS011;64127;51.488;5.462;2023-05-10T05:15:16;41.87;;;32.23;;
75429;SDS011;64127;51.488;5.462;2023-05-10T05:17:48;41.07;;;32.70;;
75429;SDS011;64127;51.488;5.462;2023-05-10T05:20:20;38.13;;;30.17;;
75429;SDS011;64127;51.488;5.462;2023-05-10T05:22:52;39.43;;;30.90;;
75429;SDS011;64127;51.488;5.462;2023-05-10T05:25:24;38.20;;;30.33;;
75429;SDS011;64127;51.488;5.462;2023-05-10T05:27:56;39.70;;;29.83;;
75429;SDS011;64127;51.488;5.462;2023-05-10T05:30:28;36.17;;;29.40;;
75429;SDS011;64127;51.488;5.462;2023-05-10T05:33:00;38.13;;;30.20;;
75429;SDS011;64127;51.488;5.462;2023-05-10T05:35:32;36.00;;;29.00;;
75429;SDS011;64127;51.488;5.462;2023-05-10T05:38:04;38.80;;;29.83;;
75429;SDS011;64127;51.488;5.462;2023-05-10T05:40:37;35.90;;;29.13;;
75429;SDS011;64127;51.488;5.462;2023-05-10T05:43:09;36.03;;;28.43;;
75429;SDS011;64127;51.488;5.462;2023-05-10T05:45:41;34.37;;;28.97;;
75429;SDS011;64127;51.488;5.462;2023-05-10T05:48:13;35.57;;;28.67;;
75429;SDS011;64127;51.488;5.462;2023-05-10T05:50:45;34.13;;;28.57;;
75429;SDS011;64127;51.488;5.462;2023-05-10T05:53:17;34.97;;;29.43;;
75429;SDS011;64127;51.488;5.462;2023-05-10T05:55:56;35.23;;;27.93;;
75429;SDS011;64127;51.488;5.462;2023-05-10T05:58:29;33.43;;;27.30;;
75429;SDS011;64127;51.488;5.462;2023-05-10T06:01:01;33.33;;;26.40;;
75429;SDS011;64127;51.488;5.462;2023-05-10T06:03:33;34.00;;;27.30;;
75429;SDS011;64127;51.488;5.462;2023-05-10T06:06:05;31.13;;;25.80;;
75429;SDS011;64127;51.488;5.462;2023-05-10T06:08:37;28.70;;;24.93;;
75429;SDS011;64127;51.488;5.462;2023-05-10T06:11:09;27.70;;;24.80;;
75429;SDS011;64127;51.488;5.462;2023-05-10T06:13:41;29.10;;;26.00;;
75429;SDS011;64127;51.488;5.462;2023-05-10T06:16:14;28.43;;;24.73;;
75429;SDS011;64127;51.488;5.462;2023-05-10T06:18:46;27.93;;;24.93;;
75429;SDS011;64127;51.488;5.462;2023-05-10T06:21:18;31.13;;;25.70;;
75429;SDS011;64127;51.488;5.462;2023-05-10T06:23:50;28.83;;;25.33;;
75429;SDS011;64127;51.488;5.462;2023-05-10T06:26:22;30.43;;;25.53;;
75429;SDS011;64127;51.488;5.462;2023-05-10T06:28:54;29.53;;;24.93;;
75429;SDS011;64127;51.488;5.462;2023-05-10T06:31:26;31.87;;;25.83;;
75429;SDS011;64127;51.488;5.462;2023-05-10T06:33:58;30.20;;;26.40;;
75429;SDS011;64127;51.488;5.462;2023-05-10T06:36:30;29.90;;;26.20;;
75429;SDS011;64127;51.488;5.462;2023-05-10T06:39:02;31.23;;;26.77;;
75429;SDS011;64127;51.488;5.462;2023-05-10T06:41:34;31.23;;;26.03;;
75429;SDS011;64127;51.488;5.462;2023-05-10T06:44:06;30.93;;;27.23;;
75429;SDS011;64127;51.488;5.462;2023-05-10T06:46:38;28.60;;;25.60;;
75429;SDS011;64127;51.488;5.462;2023-05-10T06:49:10;29.17;;;26.07;;
75429;SDS011;64127;51.488;5.462;2023-05-10T06:51:42;32.30;;;27.10;;
75429;SDS011;64127;51.488;5.462;2023-05-10T06:54:14;30.40;;;26.97;;
75429;SDS011;64127;51.488;5.462;2023-05-10T06:56:46;30.47;;;27.23;;
75429;SDS011;64127;51.488;5.462;2023-05-10T06:59:18;30.93;;;26.87;;
75429;SDS011;64127;51.488;5.462;2023-05-10T07:01:50;31.07;;;27.67;;
75429;SDS011;64127;51.488;5.462;2023-05-10T07:04:22;30.70;;;27.47;;
75429;SDS011;64127;51.488;5.462;2023-05-10T07:06:54;30.33;;;27.03;;
75429;SDS011;64127;51.488;5.462;2023-05-10T07:09:26;31.83;;;27.80;;
75429;SDS011;64127;51.488;5.462;2023-05-10T07:11:59;32.30;;;26.87;;
75429;SDS011;64127;51.488;5.462;2023-05-10T07:14:33;27.97;;;25.17;;
75429;SDS011;64127;51.488;5.462;2023-05-10T07:17:04;30.27;;;25.57;;
75429;SDS011;64127;51.488;5.462;2023-05-10T07:19:36;29.33;;;25.03;;
75429;SDS011;64127;51.488;5.462;2023-05-10T07:22:08;28.43;;;25.47;;
75429;SDS011;64127;51.488;5.462;2023-05-10T07:24:40;27.33;;;24.63;;
75429;SDS011;64127;51.488;5.462;2023-05-10T07:27:12;28.10;;;24.37;;
75429;SDS011;64127;51.488;5.462;2023-05-10T07:29:44;27.50;;;23.40;;
75429;SDS011;64127;51.488;5.462;2023-05-10T07:32:16;28.87;;;24.43;;
75429;SDS011;64127;51.488;5.462;2023-05-10T07:34:48;24.17;;;21.67;;
75429;SDS011;64127;51.488;5.462;2023-05-10T07:37:20;24.33;;;21.93;;
75429;SDS011;64127;51.488;5.462;2023-05-10T07:39:52;22.77;;;19.73;;
75429;SDS011;64127;51.488;5.462;2023-05-10T07:42:24;23.97;;;19.83;;
75429;SDS011;64127;51.488;5.462;2023-05-10T07:44:56;20.97;;;18.87;;
75429;SDS011;64127;51.488;5.462;2023-05-10T07:47:28;22.43;;;18.00;;
75429;SDS011;64127;51.488;5.462;2023-05-10T07:50:01;19.60;;;17.13;;
75429;SDS011;64127;51.488;5.462;2023-05-10T07:52:33;18.40;;;15.97;;
75429;SDS011;64127;51.488;5.462;2023-05-10T07:55:05;17.47;;;15.03;;
75429;SDS011;64127;51.488;5.462;2023-05-10T07:57:38;16.20;;;13.77;;
75429;SDS011;64127;51.488;5.462;2023-05-10T08:00:12;14.37;;;12.50;;
75429;SDS011;64127;51.488;5.462;2023-05-10T08:02:47;13.77;;;11.53;;
75429;SDS011;64127;51.488;5.462;2023-05-10T08:05:20;10.73;;;9.63;;
75429;SDS011;64127;51.488;5.462;2023-05-10T08:07:52;11.30;;;10.10;;
75429;SDS011;64127;51.488;5.462;2023-05-10T08:10:24;11.80;;;9.80;;
75429;SDS011;64127;51.488;5.462;2023-05-10T08:12:56;11.30;;;9.43;;
75429;SDS011;64127;51.488;5.462;2023-05-10T08:15:29;12.87;;;9.63;;
75429;SDS011;64127;51.488;5.462;2023-05-10T08:18:01;10.80;;;9.70;;
75429;SDS011;64127;51.488;5.462;2023-05-10T08:20:33;9.90;;;8.57;;
75429;SDS011;64127;51.488;5.462;2023-05-10T08:23:05;9.97;;;8.20;;
75429;SDS011;64127;51.488;5.462;2023-05-10T08:25:37;10.73;;;8.73;;
75429;SDS011;64127;51.488;5.462;2023-05-10T08:28:09;10.13;;;8.80;;
75429;SDS011;64127;51.488;5.462;2023-05-10T08:30:42;9.70;;;8.40;;
75429;SDS011;64127;51.488;5.462;2023-05-10T08:33:14;9.67;;;8.60;;
75429;SDS011;64127;51.488;5.462;2023-05-10T08:35:46;10.27;;;8.30;;
75429;SDS011;64127;51.488;5.462;2023-05-10T08:38:18;8.60;;;7.80;;
75429;SDS011;64127;51.488;5.462;2023-05-10T08:40:50;9.33;;;8.00;;
75429;SDS011;64127;51.488;5.462;2023-05-10T08:43:28;8.17;;;7.30;;
75429;SDS011;64127;51.488;5.462;2023-05-10T08:46:01;9.13;;;7.50;;
75429;SDS011;64127;51.488;5.462;2023-05-10T08:48:34;7.93;;;7.10;;
75429;SDS011;64127;51.488;5.462;2023-05-10T08:51:07;9.27;;;8.33;;
75429;SDS011;64127;51.488;5.462;2023-05-10T08:53:42;11.40;;;9.10;;
75429;SDS011;64127;51.488;5.462;2023-05-10T08:56:15;10.20;;;9.10;;
75429;SDS011;64127;51.488;5.462;2023-05-10T08:58:49;10.70;;;9.60;;
75429;SDS011;64127;51.488;5.462;2023-05-10T09:01:21;9.60;;;8.70;;
75429;SDS011;64127;51.488;5.462;2023-05-10T09:03:54;9.47;;;8.57;;
75429;SDS011;64127;51.488;5.462;2023-05-10T09:06:27;9.43;;;8.53;;
75429;SDS011;64127;51.488;5.462;2023-05-10T09:08:59;8.77;;;7.87;;
75429;SDS011;64127;51.488;5.462;2023-05-10T09:11:32;7.67;;;6.87;;
75429;SDS011;64127;51.488;5.462;2023-05-10T09:14:05;7.40;;;6.70;;
75429;SDS011;64127;51.488;5.462;2023-05-10T09:16:37;7.10;;;6.50;;
75429;SDS011;64127;51.488;5.462;2023-05-10T09:19:10;7.37;;;6.67;;
75429;SDS011;64127;51.488;5.462;2023-05-10T09:21:42;7.37;;;6.60;;
75429;SDS011;64127;51.488;5.462;2023-05-10T09:24:14;6.93;;;6.20;;
75429;SDS011;64127;51.488;5.462;2023-05-10T09:26:47;7.40;;;6.70;;
75429;SDS011;64127;51.488;5.462;2023-05-10T09:29:20;7.03;;;6.43;;
75429;SDS011;64127;51.488;5.462;2023-05-10T09:31:52;6.80;;;6.20;;
75429;SDS011;64127;51.488;5.462;2023-05-10T09:34:30;6.57;;;5.97;;
75429;SDS011;64127;51.488;5.462;2023-05-10T09:37:04;7.03;;;6.40;;
75429;SDS011;64127;51.488;5.462;2023-05-10T09:39:36;6.80;;;6.20;;
75429;SDS011;64127;51.488;5.462;2023-05-10T09:42:09;6.30;;;5.70;;
75429;SDS011;64127;51.488;5.462;2023-05-10T09:44:41;6.57;;;5.90;;
75429;SDS011;64127;51.488;5.462;2023-05-10T09:47:17;7.13;;;6.07;;
75429;SDS011;64127;51.488;5.462;2023-05-10T09:49:52;7.33;;;6.17;;
75429;SDS011;64127;51.488;5.462;2023-05-10T09:52:29;7.00;;;6.13;;
75429;SDS011;64127;51.488;5.462;2023-05-10T09:55:17;7.20;;;6.37;;
75429;SDS011;64127;51.488;5.462;2023-05-10T09:57:59;7.20;;;6.60;;
75429;SDS011;64127;51.488;5.462;2023-05-10T10:00:36;7.50;;;6.80;;
75429;SDS011;64127;51.488;5.462;2023-05-10T10:03:22;7.80;;;7.00;;
75429;SDS011;64127;51.488;5.462;2023-05-10T10:05:55;8.53;;;7.20;;
75429;SDS011;64127;51.488;5.462;2023-05-10T10:08:27;8.40;;;7.50;;
75429;SDS011;64127;51.488;5.462;2023-05-10T10:11:00;8.73;;;7.83;;
75429;SDS011;64127;51.488;5.462;2023-05-10T10:13:32;8.97;;;8.17;;
75429;SDS011;64127;51.488;5.462;2023-05-10T10:16:04;9.73;;;8.73;;
75429;SDS011;64127;51.488;5.462;2023-05-10T10:18:37;10.53;;;9.57;;
75429;SDS011;64127;51.488;5.462;2023-05-10T10:21:10;10.70;;;9.70;;
75429;SDS011;64127;51.488;5.462;2023-05-10T10:23:45;10.13;;;9.23;;
75429;SDS011;64127;51.488;5.462;2023-05-10T10:26:17;11.00;;;9.30;;
75429;SDS011;64127;51.488;5.462;2023-05-10T10:29:04;9.07;;;8.20;;
75429;SDS011;64127;51.488;5.462;2023-05-10T10:34:32;8.67;;;7.87;;
75429;SDS011;64127;51.488;5.462;2023-05-10T10:37:05;7.07;;;6.47;;
75429;SDS011;64127;51.488;5.462;2023-05-10T10:39:38;6.73;;;6.13;;
75429;SDS011;64127;51.488;5.462;2023-05-10T10:42:10;7.00;;;6.30;;
75429;SDS011;64127;51.488;5.462;2023-05-10T10:44:42;6.77;;;6.17;;
75429;SDS011;64127;51.488;5.462;2023-05-10T10:57:54;6.20;;;5.43;;
75429;SDS011;64127;51.488;5.462;2023-05-10T11:00:36;8.43;;;7.60;;
75429;SDS011;64127;51.488;5.462;2023-05-10T11:03:11;10.70;;;9.70;;
75429;SDS011;64127;51.488;5.462;2023-05-10T11:05:49;11.80;;;10.60;;
75429;SDS011;64127;51.488;5.462;2023-05-10T11:08:29;13.13;;;11.83;;
75429;SDS011;64127;51.488;5.462;2023-05-10T11:11:03;12.83;;;11.53;;
75429;SDS011;64127;51.488;5.462;2023-05-10T11:13:44;14.70;;;13.20;;
75429;SDS011;64127;51.488;5.462;2023-05-10T11:16:22;14.50;;;12.90;;
75429;SDS011;64127;51.488;5.462;2023-05-10T11:21:44;15.70;;;14.30;;
75429;SDS011;64127;51.488;5.462;2023-05-10T11:24:22;15.73;;;14.13;;
75429;SDS011;64127;51.488;5.462;2023-05-10T11:26:58;14.93;;;13.63;;
75429;SDS011;64127;51.488;5.462;2023-05-10T11:29:32;14.47;;;13.03;;
75429;SDS011;64127;51.488;5.462;2023-05-10T11:32:04;13.53;;;12.43;;
75429;SDS011;64127;51.488;5.462;2023-05-10T11:34:39;14.33;;;13.03;;
75429;SDS011;64127;51.488;5.462;2023-05-10T11:37:11;15.13;;;13.60;;
75429;SDS011;64127;51.488;5.462;2023-05-10T11:39:45;14.23;;;12.77;;
75429;SDS011;64127;51.488;5.462;2023-05-10T11:42:20;14.60;;;13.30;;
75429;SDS011;64127;51.488;5.462;2023-05-10T11:44:52;13.93;;;12.63;;
75429;SDS011;64127;51.488;5.462;2023-05-10T11:47:25;14.93;;;13.50;;
75429;SDS011;64127;51.488;5.462;2023-05-10T11:49:56;13.80;;;12.60;;
75429;SDS011;64127;51.488;5.462;2023-05-10T11:52:29;13.83;;;12.53;;
75429;SDS011;64127;51.488;5.462;2023-05-10T11:55:07;15.23;;;13.63;;
75429;SDS011;64127;51.488;5.462;2023-05-10T11:57:39;13.17;;;11.97;;
75429;SDS011;64127;51.488;5.462;2023-05-10T12:00:13;11.70;;;10.60;;
75429;SDS011;64127;51.488;5.462;2023-05-10T12:02:46;9.73;;;8.83;;
75429;SDS011;64127;51.488;5.462;2023-05-10T12:05:19;9.63;;;8.83;;
75429;SDS011;64127;51.488;5.462;2023-05-10T12:07:51;10.93;;;9.87;;
75429;SDS011;64127;51.488;5.462;2023-05-10T12:10:25;10.40;;;9.50;;
75429;SDS011;64127;51.488;5.462;2023-05-10T12:12:58;13.40;;;10.23;;
75429;SDS011;64127;51.488;5.462;2023-05-10T12:15:30;11.00;;;10.00;;
75429;SDS011;64127;51.488;5.462;2023-05-10T12:18:02;12.63;;;11.43;;
75429;SDS011;64127;51.488;5.462;2023-05-10T12:20:34;12.90;;;11.80;;
75429;SDS011;64127;51.488;5.462;2023-05-10T12:23:08;13.70;;;12.37;;
75429;SDS011;64127;51.488;5.462;2023-05-10T12:25:41;13.00;;;11.93;;
75429;SDS011;64127;51.488;5.462;2023-05-10T12:28:13;14.87;;;13.50;;
75429;SDS011;64127;51.488;5.462;2023-05-10T12:30:45;14.37;;;12.97;;
75429;SDS011;64127;51.488;5.462;2023-05-10T12:33:17;14.70;;;13.40;;
75429;SDS011;64127;51.488;5.462;2023-05-10T12:35:50;12.90;;;11.60;;
75429;SDS011;64127;51.488;5.462;2023-05-10T12:38:31;12.30;;;11.30;;
75429;SDS011;64127;51.488;5.462;2023-05-10T12:41:07;8.53;;;7.83;;
75429;SDS011;64127;51.488;5.462;2023-05-10T12:43:44;7.97;;;7.37;;
75429;SDS011;64127;51.488;5.462;2023-05-10T12:46:17;6.93;;;6.33;;
75429;SDS011;64127;51.488;5.462;2023-05-10T12:48:50;7.43;;;6.73;;
75429;SDS011;64127;51.488;5.462;2023-05-10T12:51:38;7.03;;;6.50;;
75429;SDS011;64127;51.488;5.462;2023-05-10T12:54:10;7.57;;;6.63;;
75429;SDS011;64127;51.488;5.462;2023-05-10T12:56:43;7.40;;;6.80;;
75429;SDS011;64127;51.488;5.462;2023-05-10T12:59:15;6.90;;;6.30;;
75429;SDS011;64127;51.488;5.462;2023-05-10T13:01:47;7.33;;;6.63;;
75429;SDS011;64127;51.488;5.462;2023-05-10T13:04:19;7.00;;;6.37;;
75429;SDS011;64127;51.488;5.462;2023-05-10T13:06:51;7.33;;;6.73;;
75429;SDS011;64127;51.488;5.462;2023-05-10T13:09:23;8.33;;;7.67;;
75429;SDS011;64127;51.488;5.462;2023-05-10T13:11:56;9.50;;;8.70;;
75429;SDS011;64127;51.488;5.462;2023-05-10T13:14:29;10.80;;;9.90;;
75429;SDS011;64127;51.488;5.462;2023-05-10T13:17:02;11.67;;;10.67;;
75429;SDS011;64127;51.488;5.462;2023-05-10T13:19:34;13.23;;;12.13;;
75429;SDS011;64127;51.488;5.462;2023-05-10T13:22:06;13.13;;;11.97;;
75429;SDS011;64127;51.488;5.462;2023-05-10T13:24:38;13.23;;;12.03;;
75429;SDS011;64127;51.488;5.462;2023-05-10T13:27:10;14.40;;;13.10;;
75429;SDS011;64127;51.488;5.462;2023-05-10T13:29:42;14.97;;;13.67;;
75429;SDS011;64127;51.488;5.462;2023-05-10T13:32:16;15.83;;;14.43;;
75429;SDS011;64127;51.488;5.462;2023-05-10T13:34:48;17.40;;;15.80;;
75429;SDS011;64127;51.488;5.462;2023-05-10T13:37:20;16.70;;;15.20;;
75429;SDS011;64127;51.488;5.462;2023-05-10T13:39:52;17.73;;;16.20;;
75429;SDS011;64127;51.488;5.462;2023-05-10T13:42:24;16.57;;;15.00;;
75429;SDS011;64127;51.488;5.462;2023-05-10T13:44:56;17.90;;;16.30;;
75429;SDS011;64127;51.488;5.462;2023-05-10T13:47:28;16.50;;;15.00;;
75429;SDS011;64127;51.488;5.462;2023-05-10T13:50:00;15.67;;;14.27;;
75429;SDS011;64127;51.488;5.462;2023-05-10T13:52:33;16.37;;;14.83;;
75429;SDS011;64127;51.488;5.462;2023-05-10T13:55:05;16.23;;;14.63;;
75429;SDS011;64127;51.488;5.462;2023-05-10T13:57:37;15.33;;;13.83;;
75429;SDS011;64127;51.488;5.462;2023-05-10T14:00:09;11.73;;;10.53;;
75429;SDS011;64127;51.488;5.462;2023-05-10T14:02:42;8.77;;;7.87;;
75429;SDS011;64127;51.488;5.462;2023-05-10T14:05:14;5.77;;;5.27;;
75429;SDS011;64127;51.488;5.462;2023-05-10T14:07:49;6.13;;;4.83;;
75429;SDS011;64127;51.488;5.462;2023-05-10T14:10:22;5.50;;;5.00;;
75429;SDS011;64127;51.488;5.462;2023-05-10T14:12:53;5.80;;;5.20;;
75429;SDS011;64127;51.488;5.462;2023-05-10T14:15:25;6.13;;;5.27;;
75429;SDS011;64127;51.488;5.462;2023-05-10T14:17:57;6.57;;;5.63;;
75429;SDS011;64127;51.488;5.462;2023-05-10T14:20:30;6.70;;;6.00;;
75429;SDS011;64127;51.488;5.462;2023-05-10T14:23:03;7.37;;;6.67;;
75429;SDS011;64127;51.488;5.462;2023-05-10T14:25:35;7.90;;;7.03;;
75429;SDS011;64127;51.488;5.462;2023-05-10T14:28:07;7.97;;;7.17;;
75429;SDS011;64127;51.488;5.462;2023-05-10T14:30:39;8.80;;;8.00;;
75429;SDS011;64127;51.488;5.462;2023-05-10T14:33:11;9.93;;;8.97;;
75429;SDS011;64127;51.488;5.462;2023-05-10T14:35:43;9.73;;;8.80;;
75429;SDS011;64127;51.488;5.462;2023-05-10T14:38:16;9.50;;;8.57;;
75429;SDS011;64127;51.488;5.462;2023-05-10T14:40:48;10.57;;;9.57;;
75429;SDS011;64127;51.488;5.462;2023-05-10T14:43:20;10.60;;;9.50;;
75429;SDS011;64127;51.488;5.462;2023-05-10T14:45:52;11.67;;;10.43;;
75429;SDS011;64127;51.488;5.462;2023-05-10T14:48:24;10.83;;;9.70;;
75429;SDS011;64127;51.488;5.462;2023-05-10T14:50:56;10.43;;;9.43;;
75429;SDS011;64127;51.488;5.462;2023-05-10T14:53:28;11.30;;;10.13;;
75429;SDS011;64127;51.488;5.462;2023-05-10T14:56:00;11.33;;;9.63;;
75429;SDS011;64127;51.488;5.462;2023-05-10T14:58:34;11.27;;;10.13;;
75429;SDS011;64127;51.488;5.462;2023-05-10T15:01:07;10.83;;;9.77;;
75429;SDS011;64127;51.488;5.462;2023-05-10T15:03:39;11.23;;;10.03;;
75429;SDS011;64127;51.488;5.462;2023-05-10T15:06:14;12.30;;;10.10;;
75429;SDS011;64127;51.488;5.462;2023-05-10T15:08:49;9.50;;;8.60;;
75429;SDS011;64127;51.488;5.462;2023-05-10T15:11:21;8.93;;;8.03;;
75429;SDS011;64127;51.488;5.462;2023-05-10T15:13:53;9.73;;;7.93;;
75429;SDS011;64127;51.488;5.462;2023-05-10T15:16:25;9.13;;;8.23;;
75429;SDS011;64127;51.488;5.462;2023-05-10T15:18:57;8.97;;;8.17;;
75429;SDS011;64127;51.488;5.462;2023-05-10T15:21:29;8.37;;;7.67;;
75429;SDS011;64127;51.488;5.462;2023-05-10T15:24:06;9.70;;;8.70;;
75429;SDS011;64127;51.488;5.462;2023-05-10T15:26:39;10.80;;;9.20;;
75429;SDS011;64127;51.488;5.462;2023-05-10T15:29:11;9.70;;;8.80;;
75429;SDS011;64127;51.488;5.462;2023-05-10T15:31:43;10.67;;;9.77;;
75429;SDS011;64127;51.488;5.462;2023-05-10T15:34:15;10.13;;;9.13;;
75429;SDS011;64127;51.488;5.462;2023-05-10T15:36:48;11.00;;;9.57;;
75429;SDS011;64127;51.488;5.462;2023-05-10T15:39:20;9.37;;;8.57;;
75429;SDS011;64127;51.488;5.462;2023-05-10T15:41:52;10.00;;;9.00;;